Aérodrome :
LOGIN :

S'inscrire | Disclaimer

   EN    FR    IT 

 










Légende :    VFR   VFR Marginal   IFR   IFR Intensif   IFR Très Intensif
Visi : 
Plafond : 
>= 8 km
>= 3000ft
5 à 8 km
1000 à 3000 ft
1500m à 5 km
500 à 1000 ft
800 à 1500m
200 à 500 ft
< 800m
< 200 ft
Symboles :   Orages  Brouillard  Fortes neiges  Fortes précipitations  Vent > 20 kt
SIGMETs :   Divers  Orages  Givrage  Turbulence  Onde Orograph.  Cendres Volcan.







- Altitude de l'aérodrome : 124 ft
- Code IATA : RNS
- Voir les cartes d'approche


LFRN - Rennes

DERNIER METAR :
  • 200900Z AUTO 22010KT 9999 BKN019 OVC026 23/17 Q1012 TEMPO 4000 SHRA BKN006 BKN012TCU

METARs EXPIRÉS :
  • 200830Z AUTO 23011KT 190V260 9999 SCT014/// OVC023/// ///TCU 22/18 Q1012 TEMPO 4000 SHRA BECMG BKN020
  • 200800Z AUTO 20011KT 9999 BKN014/// OVC020/// ///TCU 21/19 Q1012 TEMPO 4000 SHRA BKN006 BKN012TCU
  • 200730Z AUTO 20008KT 180V240 9999 -RA BKN015/// BKN020/// OVC025/// ///TCU 20/18 Q1011 TEMPO 4000 SHRA BKN006 BKN012TCU
  • 200700Z AUTO 21010KT 180V240 9999 OVC015 20/17 Q1011 TEMPO 4000 SHRA BKN006 BKN012TCU
  • 200630Z AUTO 20011KT 9999 BKN014 BKN021 21/17 Q1011 TEMPO 4000 SHRA BKN006 BKN012TCU
  • 200600Z AUTO 20007KT 9999 BKN012 BKN090 BKN240 19/17 Q1010 TEMPO 4000 SHRA BKN006 BKN012TCU

TAF AMD TAF LFRN
Valide du 20 à 06h jusqu'au 21 à 06h UTC


200547Z 2006/2106 19010KT 9999 BKN015
TEMPO 2006/2010 4000 SHRA BKN006 BKN012TCU
BECMG 2008/2010 25010KT BKN020
TEMPO 2018/2020 36010KT
BECMG 2020/2022 VRB03KT
PROB30
TEMPO 2100/2106 3000 BR BKN010
ATIS : +33 2 99 67 72 50
Pas de NOTAMs connus pour ce terrain.



MET'MAP, la Météo Aéronautique d'un coup d'oeil ! - Copyright ORBIFLY Décembre 2007 - Disclaimer

ORBIFLY MET'MAP TEAM :

Programmation & Développement : Alexandra Zaïnal
Conception & Développement : Baudouin d'Aumeries
Co-Programmation & Développement : Marc-Olivier Méhu
Soutien technique & logistique : Manuel Goepfert

Contact : metmap@orbifly.com




SOURCES & CREDITS :

   NOAA